createdAt,value
2022-11-15T00:00:31.935Z,100466.09
2022-11-15T00:02:58.363Z,100445.25
2022-11-15T00:05:25.077Z,100446.44
2022-11-15T00:07:56.171Z,100448.00
2022-11-15T00:10:22.849Z,100418.00
2022-11-15T00:12:49.332Z,100446.69
2022-11-15T00:15:15.834Z,100427.25
2022-11-15T00:17:42.304Z,100449.91
2022-11-15T00:20:09.281Z,100448.59
2022-11-15T00:22:35.746Z,100459.63
2022-11-15T00:25:02.234Z,100451.56
2022-11-15T00:27:28.728Z,100450.75
2022-11-15T00:29:55.199Z,100456.19
2022-11-15T00:32:21.708Z,100453.34
2022-11-15T00:34:48.150Z,100451.31
2022-11-15T00:37:14.592Z,100445.16
2022-11-15T00:39:41.039Z,100441.38
2022-11-15T00:42:07.472Z,100441.25
2022-11-15T00:44:34.347Z,100433.78
2022-11-15T00:47:00.821Z,100442.69
2022-11-15T00:49:27.248Z,100449.28
2022-11-15T00:51:53.680Z,100446.56
2022-11-15T00:54:20.103Z,100450.00
2022-11-15T00:56:46.720Z,100444.78
2022-11-15T00:59:13.200Z,100442.06
2022-11-15T01:01:39.631Z,100436.25
2022-11-15T01:04:06.138Z,100374.53
2022-11-15T01:06:32.587Z,100437.69
2022-11-15T01:08:59.027Z,100440.41
2022-11-15T01:11:25.447Z,100430.94
2022-11-15T01:13:51.854Z,100434.34
2022-11-15T01:16:19.509Z,100437.78
2022-11-15T01:18:46.743Z,100431.75
2022-11-15T01:21:18.282Z,100431.75
2022-11-15T01:23:45.811Z,100433.53
2022-11-15T01:26:14.974Z,100418.69
2022-11-15T01:28:42.657Z,100425.13
2022-11-15T01:31:18.570Z,100429.28
2022-11-15T01:33:45.813Z,100422.25
2022-11-15T01:36:15.111Z,100431.03
2022-11-15T01:38:42.005Z,100433.75
2022-11-15T01:41:16.668Z,100421.06
2022-11-15T01:43:43.156Z,100411.50
2022-11-15T01:46:22.832Z,100398.47
2022-11-15T01:48:52.671Z,100420.97
2022-11-15T01:51:21.024Z,100409.59
2022-11-15T01:53:52.606Z,100407.81
2022-11-15T01:56:26.780Z,100408.63
2022-11-15T01:58:56.384Z,100400.00
2022-11-15T02:01:25.406Z,100397.38
2022-11-15T02:04:01.732Z,100367.63
2022-11-15T02:06:28.198Z,100385.28
2022-11-15T02:08:57.302Z,100383.38
2022-11-15T02:11:23.760Z,100374.88
2022-11-15T02:13:50.353Z,100379.81
2022-11-15T02:16:35.176Z,100372.13
2022-11-15T02:19:13.800Z,100370.59
2022-11-15T02:22:05.020Z,100364.19
2022-11-15T02:25:09.987Z,100368.66
2022-11-15T02:28:08.740Z,100371.75
2022-11-15T02:30:42.860Z,100368.75
2022-11-15T02:33:20.031Z,100361.25
2022-11-15T02:36:00.642Z,100373.94
2022-11-15T02:38:51.337Z,100375.09
2022-11-15T02:41:44.506Z,100377.91
2022-11-15T02:44:27.671Z,100373.41
2022-11-15T02:47:14.152Z,100374.94
2022-11-15T02:49:44.540Z,100373.84
2022-11-15T02:52:16.189Z,100366.03
2022-11-15T02:54:42.619Z,100366.72
2022-11-15T02:57:16.569Z,100367.69
2022-11-15T02:59:52.063Z,100379.78
2022-11-15T03:03:03.612Z,100365.78
2022-11-15T03:05:40.291Z,100374.88
2022-11-15T03:08:31.895Z,100362.13
2022-11-15T03:11:14.548Z,100357.09
2022-11-15T03:14:10.158Z,100364.44
2022-11-15T03:16:58.884Z,100355.53
2022-11-15T03:19:55.132Z,100314.19
2022-11-15T03:22:25.599Z,100329.97
2022-11-15T03:24:56.947Z,100345.78
2022-11-15T03:27:29.340Z,100344.03
2022-11-15T03:30:00.585Z,100339.97
2022-11-15T03:32:30.979Z,100343.81
2022-11-15T03:35:03.224Z,100340.41
2022-11-15T03:38:01.028Z,100348.56
2022-11-15T03:40:38.421Z,100345.13
2022-11-15T03:43:11.469Z,100309.50
2022-11-15T03:45:47.572Z,100339.81
2022-11-15T03:48:25.496Z,100343.56
2022-11-15T03:50:52.801Z,100287.75
2022-11-15T03:53:19.232Z,100336.81
2022-11-15T03:55:45.689Z,100336.56
2022-11-15T03:58:12.147Z,100333.13
2022-11-15T04:00:38.595Z,100324.88
2022-11-15T04:03:05.043Z,100335.19
2022-11-15T04:05:31.501Z,100319.34
2022-11-15T04:07:57.962Z,100328.72
2022-11-15T04:10:24.506Z,100297.31
2022-11-15T04:12:51.064Z,100286.97
2022-11-15T04:15:20.479Z,100321.44
2022-11-15T04:17:52.597Z,100328.19
2022-11-15T04:20:39.073Z,100323.63
2022-11-15T04:23:26.663Z,100317.44
2022-11-15T04:25:54.981Z,100324.31
2022-11-15T04:28:22.284Z,100325.84
2022-11-15T04:30:48.939Z,100328.34
2022-11-15T04:33:15.885Z,100322.13
2022-11-15T04:35:43.134Z,100326.13
2022-11-15T04:38:11.588Z,100321.56
2022-11-15T04:40:38.578Z,100309.88
2022-11-15T04:43:05.334Z,100308.34
2022-11-15T04:45:31.771Z,100321.56
2022-11-15T04:47:58.268Z,100322.13
2022-11-15T04:50:24.676Z,100315.78
2022-11-15T04:52:53.587Z,100320.84
2022-11-15T04:55:20.457Z,100320.72
2022-11-15T04:57:46.945Z,100318.25
2022-11-15T05:00:16.012Z,100322.25
2022-11-15T05:03:00.837Z,100324.56
2022-11-15T05:05:27.275Z,100327.88
2022-11-15T05:07:53.796Z,100326.22
2022-11-15T05:10:20.199Z,100329.41
2022-11-15T05:12:47.762Z,100324.06
2022-11-15T05:15:14.272Z,100322.25
2022-11-15T05:17:40.751Z,100309.72
2022-11-15T05:20:07.831Z,100312.75
2022-11-15T05:22:34.264Z,100309.56
2022-11-15T05:25:00.753Z,100314.94
2022-11-15T05:27:27.209Z,100302.00
2022-11-15T05:29:53.702Z,100310.69
2022-11-15T05:32:20.119Z,100319.22
2022-11-15T05:34:46.707Z,100308.91
2022-11-15T05:37:14.935Z,100306.94
2022-11-15T05:39:41.353Z,100307.09
2022-11-15T05:42:14.018Z,100300.19
2022-11-15T05:44:45.467Z,100282.00
2022-11-15T05:47:16.705Z,100289.88
2022-11-15T05:49:45.470Z,100301.28
2022-11-15T05:52:16.530Z,100306.41
2022-11-15T05:54:43.691Z,100308.34
2022-11-15T05:57:10.441Z,100307.38
2022-11-15T05:59:37.505Z,100308.34
2022-11-15T06:02:04.146Z,100301.69
2022-11-15T06:04:30.723Z,100306.78
2022-11-15T06:06:59.736Z,100309.41
2022-11-15T06:09:26.263Z,100309.41
2022-11-15T06:11:52.690Z,100315.50
2022-11-15T06:14:19.142Z,100320.31
2022-11-15T06:16:45.540Z,100326.38
2022-11-15T06:19:12.039Z,100323.91
2022-11-15T06:21:38.506Z,100314.41
2022-11-15T06:24:06.511Z,100332.03
2022-11-15T06:26:33.135Z,100330.38
2022-11-15T06:28:59.626Z,100337.81
2022-11-15T06:31:26.054Z,100330.94
2022-11-15T06:33:52.501Z,100339.75
2022-11-15T06:36:19.017Z,100341.28
2022-11-15T06:38:46.123Z,100341.41
2022-11-15T06:41:14.284Z,100348.69
2022-11-15T06:43:41.331Z,100355.03
2022-11-15T06:46:08.777Z,100331.34
2022-11-15T06:48:35.618Z,100356.56
2022-11-15T06:51:03.808Z,100346.50
2022-11-15T06:53:32.267Z,100352.97
2022-11-15T06:56:03.951Z,100358.88
2022-11-15T06:58:30.445Z,100359.28
2022-11-15T07:01:09.528Z,100359.84
2022-11-15T07:03:37.847Z,100343.44
2022-11-15T07:06:07.404Z,100380.22
2022-11-15T07:08:35.874Z,100379.41
2022-11-15T07:11:06.231Z,100329.38
2022-11-15T07:13:37.003Z,100396.06
2022-11-15T07:16:09.013Z,100390.00
2022-11-15T07:18:36.800Z,100401.44
2022-11-15T07:21:05.679Z,100400.59
2022-11-15T07:23:32.823Z,100419.63
2022-11-15T07:25:59.889Z,100413.69
2022-11-15T07:28:27.538Z,100421.00
2022-11-15T07:30:54.367Z,100419.47
2022-11-15T07:33:20.854Z,100427.56
2022-11-15T07:35:50.508Z,100428.41
2022-11-15T07:38:20.509Z,100413.50
2022-11-15T07:40:47.709Z,100420.28
2022-11-15T07:43:14.380Z,100443.00
2022-11-15T07:45:45.799Z,100439.97
2022-11-15T07:48:12.632Z,100436.66
2022-11-15T07:50:43.192Z,100414.72
2022-11-15T07:53:10.204Z,100419.81
2022-11-15T07:55:37.176Z,100391.00
2022-11-15T07:58:05.647Z,100430.28
2022-11-15T08:00:33.000Z,100427.56
2022-11-15T08:03:14.194Z,100427.25
2022-11-15T08:05:42.289Z,100420.91
2022-11-15T08:08:10.958Z,100425.00
2022-11-15T08:10:40.815Z,100421.72
2022-11-15T08:13:09.414Z,100418.69
2022-11-15T08:15:37.240Z,100422.72
2022-11-15T08:18:12.489Z,100411.28
2022-11-15T08:20:39.129Z,100425.91
2022-11-15T08:23:06.532Z,100416.97
2022-11-15T08:25:34.955Z,100414.34
2022-11-15T08:28:04.119Z,100416.28
2022-11-15T08:30:31.687Z,100412.19
2022-11-15T08:32:59.753Z,100397.84
2022-11-15T08:35:29.004Z,100404.63
2022-11-15T08:37:55.957Z,100386.97
2022-11-15T08:40:23.674Z,100399.66
2022-11-15T08:42:50.213Z,100388.47
2022-11-15T08:45:16.675Z,100396.31
2022-11-15T08:47:43.171Z,100386.97
2022-11-15T08:50:09.887Z,100385.75
2022-11-15T08:52:36.384Z,100389.88
2022-11-15T08:55:02.870Z,100382.72
2022-11-15T08:57:31.266Z,100385.47
2022-11-15T08:59:58.542Z,100392.38
2022-11-15T09:02:25.135Z,100361.09
2022-11-15T09:04:51.686Z,100375.69
2022-11-15T09:07:18.569Z,100394.31
2022-11-15T09:09:45.211Z,100379.56
2022-11-15T09:12:11.819Z,100386.47
2022-11-15T09:14:38.707Z,100397.22
2022-11-15T09:17:09.533Z,100384.97
2022-11-15T09:19:36.056Z,100365.78
2022-11-15T09:22:02.578Z,100380.00
2022-11-15T09:24:29.070Z,100373.63
2022-11-15T09:26:55.481Z,100370.88
2022-11-15T09:29:21.974Z,100357.59
2022-11-15T09:31:48.438Z,100363.69
2022-11-15T09:34:14.952Z,100351.94
2022-11-15T09:36:41.428Z,100349.06
2022-11-15T09:39:07.910Z,100348.38
2022-11-15T09:41:59.510Z,100340.56
2022-11-15T09:44:54.346Z,100336.81
2022-11-15T09:47:29.730Z,100337.75
2022-11-15T09:49:59.579Z,100341.16
2022-11-15T09:52:26.080Z,100330.03
2022-11-15T09:54:55.582Z,100327.44
2022-11-15T09:57:38.865Z,100325.56
2022-11-15T10:00:44.613Z,100317.06
2022-11-15T10:03:34.539Z,100311.63
2022-11-15T10:06:06.319Z,100308.84
2022-11-15T10:08:38.772Z,100294.09
2022-11-15T10:14:02.439Z,100295.59
2022-11-15T10:16:31.923Z,100299.03
2022-11-15T10:19:13.732Z,100294.22
2022-11-15T10:22:15.740Z,100283.47
2022-11-15T10:24:46.029Z,100285.84
2022-11-15T10:27:18.228Z,100284.72
2022-11-15T10:29:50.196Z,100282.22
2022-11-15T10:32:21.278Z,100280.16
2022-11-15T10:34:49.563Z,100279.06
2022-11-15T10:37:28.034Z,100280.25
2022-11-15T10:40:04.947Z,100283.56
2022-11-15T10:42:31.482Z,100268.22
2022-11-15T10:44:57.913Z,100218.66
2022-11-15T10:47:37.787Z,100256.44
2022-11-15T10:50:28.439Z,100259.78
2022-11-15T10:52:55.098Z,100258.06
2022-11-15T10:55:29.530Z,100256.09
2022-11-15T10:58:02.475Z,100222.00
2022-11-15T11:00:33.654Z,100250.75
2022-11-15T11:03:08.054Z,100239.03
2022-11-15T11:05:42.663Z,100233.28
2022-11-15T11:08:15.420Z,100225.25
2022-11-15T11:11:00.273Z,100227.41
2022-11-15T11:13:38.393Z,100232.31
2022-11-15T11:16:23.459Z,100225.00
2022-11-15T11:18:55.839Z,100222.97
2022-11-15T11:21:45.074Z,100226.75
2022-11-15T11:24:30.283Z,100213.63
2022-11-15T11:27:22.855Z,100222.19
2022-11-15T11:30:09.081Z,100215.88
2022-11-15T11:32:55.059Z,100219.19
2022-11-15T11:35:34.679Z,100213.38
2022-11-15T11:38:18.670Z,100221.81
2022-11-15T11:41:00.455Z,100218.16
2022-11-15T11:43:49.053Z,100217.72
2022-11-15T11:46:18.513Z,100218.53
2022-11-15T11:48:48.679Z,100201.44
2022-11-15T11:51:25.535Z,100207.44
2022-11-15T11:53:55.645Z,100189.59
2022-11-15T11:56:44.467Z,100196.44
2022-11-15T11:59:24.916Z,100175.72
2022-11-15T12:01:51.836Z,100174.78
2022-11-15T12:04:30.516Z,100163.78
2022-11-15T12:07:04.633Z,100152.19
2022-11-15T12:10:22.083Z,100146.59
2022-11-15T12:12:57.667Z,100150.06
2022-11-15T12:15:32.163Z,100140.19
2022-11-15T12:18:01.179Z,100152.84
2022-11-15T12:20:34.739Z,100147.56
2022-11-15T12:23:04.724Z,100139.63
2022-11-15T12:25:34.074Z,100137.44
2022-11-15T12:28:09.589Z,100129.34
2022-11-15T12:30:47.817Z,100119.34
2022-11-15T12:33:38.131Z,100114.69
2022-11-15T12:36:13.439Z,100094.19
2022-11-15T12:38:57.008Z,100118.78
2022-11-15T12:41:34.679Z,100114.03
2022-11-15T12:44:02.326Z,100109.09
2022-11-15T12:46:31.827Z,100099.44
2022-11-15T12:49:12.659Z,100088.84
2022-11-15T12:51:48.320Z,100084.56
2022-11-15T12:54:23.961Z,100066.97
2022-11-15T12:57:08.777Z,100083.09
2022-11-15T13:00:05.170Z,100083.69
2022-11-15T13:02:46.320Z,100073.16
2022-11-15T13:05:19.315Z,100067.13
2022-11-15T13:07:45.723Z,100063.00
2022-11-15T13:10:14.948Z,100056.97
2022-11-15T13:12:47.516Z,100058.09
2022-11-15T13:15:13.924Z,100045.31
2022-11-15T13:17:51.117Z,100041.50
2022-11-15T13:20:17.532Z,100037.44
2022-11-15T13:22:53.057Z,100037.59
2022-11-15T13:25:24.528Z,100035.47
2022-11-15T13:27:52.082Z,100021.00
2022-11-15T13:30:25.855Z,100011.28
2022-11-15T13:32:53.558Z,100010.78
2022-11-15T13:35:33.134Z,100006.00
2022-11-15T13:38:04.933Z,100005.72
2022-11-15T13:40:37.718Z,99992.88
2022-11-15T13:43:22.484Z,99994.34
2022-11-15T13:46:31.935Z,99996.34
2022-11-15T13:49:09.049Z,99993.38
2022-11-15T13:51:44.618Z,99991.56
2022-11-15T13:54:13.972Z,99982.34
2022-11-15T13:56:44.952Z,99957.75
2022-11-15T13:59:18.180Z,99975.59
2022-11-15T14:01:44.879Z,99963.44
2022-11-15T14:04:18.902Z,99973.97
2022-11-15T14:06:49.290Z,99961.16
2022-11-15T14:09:25.552Z,99962.00
2022-11-15T14:11:57.303Z,99952.63
2022-11-15T14:14:25.989Z,99944.09
2022-11-15T14:16:55.001Z,99938.84
2022-11-15T14:19:21.435Z,99936.22
2022-11-15T14:22:15.933Z,99937.34
2022-11-15T14:24:48.184Z,99928.78
2022-11-15T14:27:17.698Z,99920.25
2022-11-15T14:29:44.131Z,99920.72
2022-11-15T14:32:17.519Z,99917.75
2022-11-15T14:34:44.022Z,99908.56
2022-11-15T14:37:27.417Z,99915.13
2022-11-15T14:39:54.828Z,99919.56
2022-11-15T14:42:22.953Z,99908.22
2022-11-15T14:44:49.474Z,99901.00
2022-11-15T14:47:15.965Z,99904.97
2022-11-15T14:49:42.935Z,99890.81
2022-11-15T14:52:31.816Z,99889.84
2022-11-15T14:55:00.222Z,99881.78
2022-11-15T14:57:26.735Z,99894.41
2022-11-15T14:59:53.431Z,99888.03
2022-11-15T15:02:22.610Z,99891.16
2022-11-15T15:04:50.205Z,99886.66
2022-11-15T15:07:17.687Z,99875.84
2022-11-15T15:09:45.517Z,99848.22
2022-11-15T15:12:24.411Z,99868.25
2022-11-15T15:14:51.595Z,99846.41
2022-11-15T15:17:18.461Z,99863.97
2022-11-15T15:19:45.140Z,99862.16
2022-11-15T15:22:17.348Z,99859.38
2022-11-15T15:24:45.039Z,99857.88
2022-11-15T15:27:11.898Z,99854.91
2022-11-15T15:29:38.619Z,99848.69
2022-11-15T15:32:06.359Z,99856.06
2022-11-15T15:34:33.672Z,99841.47
2022-11-15T15:37:23.879Z,99848.03
2022-11-15T15:39:55.145Z,99839.38
2022-11-15T15:42:23.133Z,99841.97
2022-11-15T15:44:50.891Z,99836.53
2022-11-15T15:47:22.283Z,99825.38
2022-11-15T15:49:49.894Z,99833.94
2022-11-15T15:52:16.835Z,99826.91
2022-11-15T15:54:43.403Z,99820.53
2022-11-15T15:57:13.399Z,99819.19
2022-11-15T15:59:39.987Z,99826.69
2022-11-15T16:02:07.483Z,99790.47
2022-11-15T16:04:33.966Z,99808.03
2022-11-15T16:07:01.669Z,99815.56
2022-11-15T16:09:46.637Z,99810.66
2022-11-15T16:12:13.103Z,99792.78
2022-11-15T16:14:42.992Z,99787.19
2022-11-15T16:17:20.233Z,99797.19
2022-11-15T16:19:46.708Z,99804.06
2022-11-15T16:22:13.318Z,99802.28
2022-11-15T16:24:39.812Z,99790.31
2022-11-15T16:27:06.380Z,99807.06
2022-11-15T16:29:32.887Z,99788.34
2022-11-15T16:31:59.354Z,99796.41
2022-11-15T16:34:29.981Z,99775.88
2022-11-15T16:36:57.539Z,99772.09
2022-11-15T16:39:24.096Z,99775.56
2022-11-15T16:41:50.622Z,99761.75
2022-11-15T16:44:17.161Z,99769.97
2022-11-15T16:46:43.910Z,99781.31
2022-11-15T16:49:14.170Z,99768.00
2022-11-15T16:51:42.016Z,99749.13
2022-11-15T16:54:08.612Z,99776.06
2022-11-15T16:56:35.078Z,99758.81
2022-11-15T16:59:02.217Z,99781.81
2022-11-15T17:01:33.909Z,99790.19
2022-11-15T17:04:12.412Z,99785.59
2022-11-15T17:06:40.766Z,99782.59
2022-11-15T17:09:11.499Z,99784.09
2022-11-15T17:11:37.980Z,99791.66
2022-11-15T17:14:04.438Z,99784.75
2022-11-15T17:16:31.032Z,99790.34
2022-11-15T17:18:57.569Z,99798.84
2022-11-15T17:21:24.137Z,99789.19
2022-11-15T17:23:50.654Z,99788.84
2022-11-15T17:26:29.626Z,99796.38
2022-11-15T17:28:57.512Z,99793.59
2022-11-15T17:31:25.303Z,99794.06
2022-11-15T17:33:51.752Z,99788.81
2022-11-15T17:36:18.497Z,99791.59
2022-11-15T17:38:50.255Z,99781.25
2022-11-15T17:41:16.955Z,99784.69
2022-11-15T17:43:43.406Z,99772.19
2022-11-15T17:46:15.817Z,99770.53
2022-11-15T17:48:43.585Z,99776.28
2022-11-15T17:51:15.363Z,99781.16
2022-11-15T17:53:44.146Z,99787.53
2022-11-15T17:56:13.308Z,99769.19
2022-11-15T17:58:40.543Z,99747.50
2022-11-15T18:01:28.946Z,99773.91
2022-11-15T18:03:57.029Z,99747.78
2022-11-15T18:06:24.839Z,99759.09
2022-11-15T18:08:52.919Z,99773.66
2022-11-15T18:11:22.091Z,99754.09
2022-11-15T18:13:55.066Z,99759.66
2022-11-15T18:16:26.008Z,99755.59
2022-11-15T18:18:54.048Z,99730.81
2022-11-15T18:21:21.855Z,99758.41
2022-11-15T18:23:49.771Z,99746.81
2022-11-15T18:26:17.945Z,99749.34
2022-11-15T18:28:47.691Z,99740.63
2022-11-15T18:31:22.665Z,99739.63
2022-11-15T18:33:50.959Z,99741.75
2022-11-15T18:36:25.356Z,99732.03
2022-11-15T18:38:55.943Z,99729.88
2022-11-15T18:41:25.398Z,99731.53
2022-11-15T18:43:52.562Z,99726.69
2022-11-15T18:46:21.036Z,99728.31
2022-11-15T18:48:52.561Z,99718.19
2022-11-15T18:51:21.309Z,99712.88
2022-11-15T18:53:47.984Z,99722.28
2022-11-15T18:56:20.071Z,99716.41
2022-11-15T18:58:59.109Z,99714.66
2022-11-15T19:01:33.823Z,99710.50
2022-11-15T19:04:07.522Z,99715.75
2022-11-15T19:06:37.726Z,99712.16
2022-11-15T19:09:04.230Z,99706.72
2022-11-15T19:11:35.681Z,99707.91
2022-11-15T19:14:07.935Z,99715.34
2022-11-15T19:16:37.421Z,99705.56
2022-11-15T19:19:06.976Z,99702.22
2022-11-15T19:21:34.420Z,99713.66
2022-11-15T19:24:01.418Z,99700.94
2022-11-15T19:26:29.155Z,99696.84
2022-11-15T19:29:00.847Z,99704.03
2022-11-15T19:31:29.630Z,99701.94
2022-11-15T19:33:57.895Z,99679.22
2022-11-15T19:36:27.722Z,99690.56
2022-11-15T19:38:55.336Z,99688.47
2022-11-15T19:41:23.935Z,99694.09
2022-11-15T19:43:51.046Z,99701.09
2022-11-15T19:46:20.490Z,99695.03
2022-11-15T19:48:47.762Z,99695.03
2022-11-15T19:51:19.192Z,99677.41
2022-11-15T19:53:45.735Z,99680.94
2022-11-15T19:56:14.526Z,99681.47
2022-11-15T19:58:41.558Z,99676.38
2022-11-15T20:01:18.236Z,99680.75
2022-11-15T20:03:45.545Z,99677.03
2022-11-15T20:06:17.474Z,99666.38
2022-11-15T20:08:45.257Z,99671.28
2022-11-15T20:11:13.050Z,99668.13
2022-11-15T20:13:39.750Z,99665.97
2022-11-15T20:16:06.774Z,99656.72
2022-11-15T20:18:34.634Z,99658.38
2022-11-15T20:21:02.718Z,99651.47
2022-11-15T20:23:29.184Z,99647.31
2022-11-15T20:25:55.817Z,99653.56
2022-11-15T20:28:27.289Z,99654.84
2022-11-15T20:30:56.332Z,99653.75
2022-11-15T20:33:23.873Z,99650.97
2022-11-15T20:35:50.706Z,99633.06
2022-11-15T20:38:17.572Z,99638.28
2022-11-15T20:40:50.442Z,99599.00
2022-11-15T20:43:19.184Z,99643.06
2022-11-15T20:45:47.354Z,99649.94
2022-11-15T20:48:15.168Z,99630.59
2022-11-15T20:50:43.608Z,99645.97
2022-11-15T20:53:12.741Z,99646.63
2022-11-15T20:55:41.414Z,99644.19
2022-11-15T20:58:08.942Z,99640.06
2022-11-15T21:00:37.036Z,99615.59
2022-11-15T21:03:07.931Z,99633.41
2022-11-15T21:05:37.480Z,99636.34
2022-11-15T21:08:04.238Z,99647.47
2022-11-15T21:10:49.123Z,99617.97
2022-11-15T21:13:15.578Z,99634.09
2022-11-15T21:15:42.028Z,99631.13
2022-11-15T21:18:08.594Z,99632.63
2022-11-15T21:20:35.096Z,99624.19
2022-11-15T21:23:01.586Z,99645.22
2022-11-15T21:25:28.059Z,99630.88
2022-11-15T21:27:54.549Z,99624.97
2022-11-15T21:30:21.542Z,99607.88
2022-11-15T21:32:48.046Z,99617.28
2022-11-15T21:35:14.575Z,99616.47
2022-11-15T21:37:41.607Z,99611.06
2022-11-15T21:40:08.681Z,99606.63
2022-11-15T21:42:35.092Z,99609.81
2022-11-15T21:45:01.696Z,99599.69
2022-11-15T21:47:28.300Z,99603.47
2022-11-15T21:49:54.770Z,99585.78
2022-11-15T21:52:21.425Z,99597.41
2022-11-15T21:54:47.932Z,99593.34
2022-11-15T21:57:14.422Z,99596.41
2022-11-15T22:00:00.820Z,99576.09
2022-11-15T22:02:27.289Z,99577.72
2022-11-15T22:04:53.736Z,99578.03
2022-11-15T22:07:20.375Z,99576.59
2022-11-15T22:09:46.999Z,99566.22
2022-11-15T22:12:13.440Z,99556.75
2022-11-15T22:14:39.884Z,99563.09
2022-11-15T22:17:06.327Z,99558.69
2022-11-15T22:19:32.828Z,99498.88
2022-11-15T22:21:59.403Z,99546.88
2022-11-15T22:24:25.965Z,99551.13
2022-11-15T22:26:52.523Z,99544.59
2022-11-15T22:29:19.047Z,99532.19
2022-11-15T22:31:46.048Z,99545.69
2022-11-15T22:34:12.561Z,99538.84
2022-11-15T22:37:13.125Z,99536.38
2022-11-15T22:39:30.388Z,99528.91
2022-11-15T22:41:56.902Z,99534.00
2022-11-15T22:44:23.427Z,99530.03
2022-11-15T22:46:50.003Z,99526.31
2022-11-15T22:49:16.496Z,99520.41
2022-11-15T22:51:43.053Z,99519.06
2022-11-15T22:54:09.581Z,99520.56
2022-11-15T22:56:36.080Z,99521.53
2022-11-15T22:59:02.704Z,99493.69
2022-11-15T23:01:29.341Z,99517.94
2022-11-15T23:03:55.968Z,99506.38
2022-11-15T23:06:22.575Z,99514.06
2022-11-15T23:08:49.104Z,99507.69
2022-11-15T23:11:34.020Z,99501.81
2022-11-15T23:14:00.534Z,99507.03
2022-11-15T23:16:34.297Z,99496.72
2022-11-15T23:19:06.504Z,99494.94
2022-11-15T23:21:56.552Z,99509.19
2022-11-15T23:24:23.980Z,99499.84
2022-11-15T23:26:56.294Z,99504.63
2022-11-15T23:29:24.962Z,99493.19
2022-11-15T23:32:11.106Z,99491.41
2022-11-15T23:34:40.566Z,99487.31
2022-11-15T23:37:08.861Z,99489.78
2022-11-15T23:39:35.392Z,99494.16
2022-11-15T23:42:07.537Z,99483.72
2022-11-15T23:44:35.473Z,99489.56
2022-11-15T23:47:02.106Z,99488.28
2022-11-15T23:49:28.596Z,99481.22
2022-11-15T23:51:55.314Z,99467.97
2022-11-15T23:54:21.820Z,99479.25
2022-11-15T23:56:48.365Z,99459.94
2022-11-15T23:59:14.906Z,99467.97
